ADDS TAF Board (Experimental) INFO

IDs: Format: Expanded Condensed

Updated at: 2338 UTC 22 Nov 2014

KPHL - Philadelphia Intl, PA, US

Issued at 2040 UTC 22 Nov 2014
Time2254Z23/00Z23/01Z23/02Z23/03Z23/04Z23/05Z23/06Z23/07Z23/08Z23/09Z23/10Z23/11Z23/12Z
TypeOBSPRVLPRVLPRVLPRVLPRVLPRVLPRVLPRVLPRVLPRVLPRVLPRVLPRVL
VIS10>6>6>6>6>6>6>6>6>6>6>6>6>6
CIG5580808080808080808080------
CoverOVCBKNBKNBKNBKNBKNBKNBKNBKNBKNBKNSCTSCTSCT
FltCat--VFRVFRVFRVFRVFRVFRVFRVFRVFRVFRVFRVFRVFR
WX----------------------------
WDir220210210210210210210210210210210220220220
WSpd118888888888666
WGst----------------------------
R08/26
XWnd-6-6-6-6-6-6-6-6-6-6-6-3-3-3
HWnd-9-6-6-6-6-6-6-6-6-6-6-5-5-5
R09/27
XWnd-6-6-6-6-6-6-6-6-6-6-6-3-3-3
HWnd-9-6-6-6-6-6-6-6-6-6-6-5-5-5
R17/35
XWnd-10-6-6-6-6-6-6-6-6-6-6-5-5-5
HWnd55555555555333
Raw TAF
KPHL 222040Z 2221/2324 23012KT P6SM BKN070
  FM222300 21008KT P6SM BKN080
  FM231000 22006KT P6SM SCT100
  FM232100 19008KT P6SM BKN100


Raw METAR
KPHL 222254Z 22011KT 10SM BKN055 OVC075 07/M07 A3031 RMK AO2 SLP262 T00671067 $

TAF Board Legend

Hazard VFR MVFR IFR LIFR
Visibility (sm) >5 3≤X≤5 1≤X<3 <1
Ceiling (100 ft) >30 10≤X≤30 5≤X<10 <5
Wind Speed (kt) <10 10≤X<20 20≤X<30 ≥30
Wind Gust (kt) <15 15≤X<25 25≤X<35 ≥35
Weather No Wx Reported VCTS,-TS,-FZRA TS,FZRA +TS,+FZRA


Page loaded:  23:38 UTC  |   03:38 PM Pacific  |   04:38 PM Mountain  |   05:38 PM Central  |   06:38 PM Eastern

 

ADVISORIES

FORECASTS

FORECASTS

OBSERVATIONS

USER TOOLS

ABOUT US